This is the latest recevied weather packets stored in our database for station/object N5KR. If no packets are shown the sender has not sent any weather packets the latest 10 day(s).
| Time | Temp. | Humidity | Pressure | Rain* | Wind** | Luminosity | Snow |
|---|---|---|---|---|---|---|---|
| 1777385104 | 24.44° C | 87% | 1012.5 hPa | 0 mm | - | 30 W/m² | - |
| 1777383904 | 24.44° C | 86% | 1012.3 hPa | 0 mm | - | 11 W/m² | - |
| 1777383605 | 24.44° C | 86% | 1012.5 hPa | 0 mm | - | 11 W/m² | - |
| 1777383305 | 24.44° C | 86% | 1012.7 hPa | 0 mm | - | 13 W/m² | - |
| 1777381505 | 24.44° C | 85% | 1012.5 hPa | 0 mm | - | 25 W/m² | - |
| 1777380304 | 24.44° C | 85% | 1012.1 hPa | 0 mm | - | 17 W/m² | - |
| 1777379105 | 24.44° C | 85% | 1011.8 hPa | 0 mm | - | 16 W/m² | - |
| 1777376704 | 24.44° C | 84% | 1011.4 hPa | 0 mm | - | 0 W/m² | - |
| 1777374904 | 24.44° C | 84% | 1010.9 hPa | 0 mm | - | 0 W/m² | - |
| 1777370704 | 24.44° C | 86% | 1011.3 hPa | 0 mm | - | 0 W/m² | - |
| 1777369504 | 24.44° C | 86% | 1011.2 hPa | 0 mm | - | 0 W/m² | - |
| 1777366204 | 24.44° C | 86% | 1010.9 hPa | 0 mm | - | 0 W/m² | - |
| 1777364104 | 24.44° C | 87% | 1011.1 hPa | 0 mm | - | 0 W/m² | - |
| 1777363207 | 24.44° C | 88% | 1011.1 hPa | 0 mm | - | 0 W/m² | - |
| 1777359907 | 24.44° C | 90% | 1010.8 hPa | 0 mm | - | 0 W/m² | - |
| 1777356007 | 23.89° C | 87% | 1011.5 hPa | 0 mm | - | 0 W/m² | - |
| 1777352407 | 23.89° C | 86% | 1011.5 hPa | 0 mm | - | 0 W/m² | - |
| 1777351207 | 23.33° C | 84% | 1011.7 hPa | 0 mm | - | 0 W/m² | - |
| 1777348506 | 23.33° C | 84% | 1011.8 hPa | 0 mm | - | 0 W/m² | - |
| 1777345807 | 23.33° C | 85% | 1011.5 hPa | 0 mm | - | 0 W/m² | - |
| 1777345206 | 23.33° C | 85% | 1011.2 hPa | 0.25 mm | - | 0 W/m² | - |
| 1777342807 | 24.44° C | 86% | 1010.3 hPa | 0.25 mm | - | 0 W/m² | - |
| 1777341606 | 24.44° C | 79% | 1010.1 hPa | 0 mm | - | 0 W/m² | - |
| 1777338606 | 27.22° C | 77% | 1009.1 hPa | 0 mm | - | 0 W/m² | - |
| 1777336206 | 31.11° C | 62% | 1008.2 hPa | 0 mm | - | 81 W/m² | - |
* Rain latest hour (hover to see other rain measurements)
** Current wind speed in m/s (hover to see current wind gust speed)